Meath Environmental Platform

Observations for Trim Patrick St

Time AQI Temp °C Hum % Pres Pa CO μg/m³ H₂S μg/m³ NO μg/m³ NO₂ μg/m³ O₃ μg/m³ SO₂ μg/m³ PM1 μg/m³ PM2.5 μg/m³ PM10 μg/m³
Saturday 1 August 2026
14:39 2 26.9 35 69,041 0 0 1.92 10.09 72.05 10.49 2 8.17 8.99
14:38 2 26.9 34 69,031 0 0 1.95 12.34 79.55 9.32 3.71 8.99 9.89
14:37 2 26.9 34 69,008 0 0 1.98 10.9 65.57 10.05 3.71 10.61 11.67
14:36 2 26.9 34 69,014 0 0.49 1.99 13.07 89.57 10.96 3.71 9.83 10.81
14:35 2 26.9 34 68,993 0 0 1.97 13.66 73.6 9.36 4.57 10.6 11.66
14:34 2 26.9 33 68,993 0 0 2.08 10.2 52.82 9.6 4.57 11.47 12.61
14:33 2 26.8 35 69,016 0 0 1.92 11.46 83.53 10.86 5.43 11.33 12.47
14:32 2 26.8 34 69,027 0 0 2.05 12.03 71.15 9.6 6.29 13.79 15.17
14:31 2 26.7 35 69,006 0 0 1.99 11.61 82.46 10.36 5.43 12.13 13.34
14:30 2 26.7 35 69,012 0 0 1.95 11.47 73.74 10.05 4.57 11.31 12.44
14:29 2 26.6 34 69,021 0 0 2.11 11.18 71.49 10.13 4.57 12.21 13.43
14:28 2 26.6 35 69,002 0 0 2 11.57 69.46 10.17 2.86 8.97 9.87
14:27 2 26.5 35 69,006 0 0 2.06 11.12 67.95 8.71 3.71 10.57 11.62
14:26 2 26.5 36 69,012 0 0.73 1.91 10.31 70.2 10.84 2.86 8.08 8.89
14:25 2 26.4 35 68,997 0 4.1 1.97 17.89 88.3 9.87 5.43 11.35 12.48
14:24 2 26.3 35 68,999 0 0 2.09 10.79 79.83 9.32 2.86 8.93 9.82
14:23 2 26.3 35 69,004 0 0 2.12 11.65 75.68 9.56 3.71 9.72 10.69
14:22 2 26.2 36 68,981 0 0 2.13 9.65 68.3 10.11 5.43 12.88 14.17
14:21 2 26.1 36 68,983 0 0 2.1 11.69 78.81 9.17 8 16.83 17.88
14:20 2 26.1 36 68,985 0 1.11 2.16 9.6 71.45 9.73 8 16.86 18.54